sensor_id;sensor_type;location;lat;lon;timestamp;temperature;humidity
2220;DHT22;1116;51.502;7.414;2023-08-06T11:53:01;20.30;55.30
2220;DHT22;1116;51.502;7.414;2023-08-06T11:55:31;20.10;55.00
2220;DHT22;1116;51.502;7.414;2023-08-06T11:58:03;20.20;58.60
2220;DHT22;1116;51.502;7.414;2023-08-06T12:00:34;20.50;63.00
2220;DHT22;1116;51.502;7.414;2023-08-06T12:03:06;20.60;58.50
2220;DHT22;1116;51.502;7.414;2023-08-06T12:05:37;20.60;62.90
2220;DHT22;1116;51.502;7.414;2023-08-06T12:08:10;20.60;66.40
2220;DHT22;1116;51.502;7.414;2023-08-06T12:10:40;20.20;82.40
2220;DHT22;1116;51.502;7.414;2023-08-06T12:13:10;20.00;76.50
2220;DHT22;1116;51.502;7.414;2023-08-06T12:15:41;20.00;85.40
2220;DHT22;1116;51.502;7.414;2023-08-06T12:18:11;20.00;84.20
2220;DHT22;1116;51.502;7.414;2023-08-06T12:20:41;19.90;84.10
2220;DHT22;1116;51.502;7.414;2023-08-06T12:23:14;19.80;82.90
2220;DHT22;1116;51.502;7.414;2023-08-06T12:25:44;19.60;79.70
2220;DHT22;1116;51.502;7.414;2023-08-06T12:28:14;19.60;84.00
2220;DHT22;1116;51.502;7.414;2023-08-06T12:30:44;19.40;86.30
2220;DHT22;1116;51.502;7.414;2023-08-06T12:33:15;19.20;93.50
2220;DHT22;1116;51.502;7.414;2023-08-06T12:35:46;19.00;95.50
2220;DHT22;1116;51.502;7.414;2023-08-06T12:38:20;18.90;92.50
2220;DHT22;1116;51.502;7.414;2023-08-06T12:40:51;18.70;93.50
2220;DHT22;1116;51.502;7.414;2023-08-06T12:43:21;18.60;94.40
2220;DHT22;1116;51.502;7.414;2023-08-06T12:45:51;18.40;94.70
2220;DHT22;1116;51.502;7.414;2023-08-06T12:48:23;18.10;95.70
2220;DHT22;1116;51.502;7.414;2023-08-06T12:50:54;17.90;96.20
2220;DHT22;1116;51.502;7.414;2023-08-06T12:53:27;17.90;96.70
2220;DHT22;1116;51.502;7.414;2023-08-06T12:55:58;17.80;95.00
2220;DHT22;1116;51.502;7.414;2023-08-06T12:58:29;17.90;98.00
2220;DHT22;1116;51.502;7.414;2023-08-06T13:01:00;17.90;98.30
2220;DHT22;1116;51.502;7.414;2023-08-06T13:03:31;17.80;95.90
2220;DHT22;1116;51.502;7.414;2023-08-06T13:06:03;17.70;93.90
2220;DHT22;1116;51.502;7.414;2023-08-06T13:08:36;17.70;96.60
2220;DHT22;1116;51.502;7.414;2023-08-06T13:11:07;17.60;96.00
2220;DHT22;1116;51.502;7.414;2023-08-06T13:13:37;17.50;95.10
2220;DHT22;1116;51.502;7.414;2023-08-06T13:16:08;17.50;98.40
2220;DHT22;1116;51.502;7.414;2023-08-06T13:18:39;17.50;99.90
2220;DHT22;1116;51.502;7.414;2023-08-06T13:21:10;17.00;99.90
2220;DHT22;1116;51.502;7.414;2023-08-06T13:23:44;17.00;99.90
2220;DHT22;1116;51.502;7.414;2023-08-06T13:26:14;17.20;99.90
2220;DHT22;1116;51.502;7.414;2023-08-06T13:28:45;17.10;99.90
2220;DHT22;1116;51.502;7.414;2023-08-06T13:31:16;16.90;96.30
2220;DHT22;1116;51.502;7.414;2023-08-06T13:33:47;16.80;99.90
2220;DHT22;1116;51.502;7.414;2023-08-06T13:36:19;16.80;99.90
2220;DHT22;1116;51.502;7.414;2023-08-06T13:38:52;16.90;99.90
2220;DHT22;1116;51.502;7.414;2023-08-06T13:41:22;17.00;99.90
2220;DHT22;1116;51.502;7.414;2023-08-06T13:43:53;17.00;99.70
2220;DHT22;1116;51.502;7.414;2023-08-06T13:46:24;16.90;99.90
2220;DHT22;1116;51.502;7.414;2023-08-06T13:48:55;16.90;99.90
2220;DHT22;1116;51.502;7.414;2023-08-06T13:51:26;16.90;99.90
2220;DHT22;1116;51.502;7.414;2023-08-06T13:54:00;17.00;99.90
2220;DHT22;1116;51.502;7.414;2023-08-06T13:56:30;17.10;99.90
2220;DHT22;1116;51.502;7.414;2023-08-06T13:59:02;17.10;99.90
2220;DHT22;1116;51.502;7.414;2023-08-06T14:01:33;17.10;99.90
2220;DHT22;1116;51.502;7.414;2023-08-06T14:04:18;17.10;97.90
2220;DHT22;1116;51.502;7.414;2023-08-06T14:06:49;17.00;99.30
2220;DHT22;1116;51.502;7.414;2023-08-06T14:09:23;17.00;99.90
2220;DHT22;1116;51.502;7.414;2023-08-06T14:11:54;17.10;99.90
2220;DHT22;1116;51.502;7.414;2023-08-06T14:14:24;17.20;99.80
2220;DHT22;1116;51.502;7.414;2023-08-06T14:16:56;17.20;99.90
2220;DHT22;1116;51.502;7.414;2023-08-06T14:19:28;17.20;99.90
2220;DHT22;1116;51.502;7.414;2023-08-06T14:21:59;17.20;99.90
2220;DHT22;1116;51.502;7.414;2023-08-06T14:24:33;17.30;98.90
2220;DHT22;1116;51.502;7.414;2023-08-06T14:27:03;17.20;94.90
2220;DHT22;1116;51.502;7.414;2023-08-06T14:29:34;17.20;97.10
2220;DHT22;1116;51.502;7.414;2023-08-06T14:32:06;17.20;96.60
2220;DHT22;1116;51.502;7.414;2023-08-06T14:34:38;17.20;95.90
2220;DHT22;1116;51.502;7.414;2023-08-06T14:37:09;17.20;98.80
2220;DHT22;1116;51.502;7.414;2023-08-06T14:39:42;17.00;95.00
2220;DHT22;1116;51.502;7.414;2023-08-06T14:42:13;17.00;97.10
2220;DHT22;1116;51.502;7.414;2023-08-06T14:44:43;17.10;99.90
2220;DHT22;1116;51.502;7.414;2023-08-06T14:47:14;16.90;99.90
2220;DHT22;1116;51.502;7.414;2023-08-06T14:49:45;16.90;99.90
2220;DHT22;1116;51.502;7.414;2023-08-06T14:52:17;16.80;99.90
2220;DHT22;1116;51.502;7.414;2023-08-06T14:54:51;16.70;99.90
2220;DHT22;1116;51.502;7.414;2023-08-06T14:57:23;16.60;99.90
2220;DHT22;1116;51.502;7.414;2023-08-06T14:59:55;16.70;99.90
2220;DHT22;1116;51.502;7.414;2023-08-06T15:02:27;16.60;99.90
2220;DHT22;1116;51.502;7.414;2023-08-06T15:04:58;16.60;99.90
2220;DHT22;1116;51.502;7.414;2023-08-06T15:07:29;16.60;99.90
2220;DHT22;1116;51.502;7.414;2023-08-06T15:10:06;16.70;99.90
2220;DHT22;1116;51.502;7.414;2023-08-06T15:12:41;16.80;99.90
2220;DHT22;1116;51.502;7.414;2023-08-06T15:15:12;16.80;99.90
2220;DHT22;1116;51.502;7.414;2023-08-06T15:17:43;16.80;99.90
2220;DHT22;1116;51.502;7.414;2023-08-06T15:20:14;16.90;99.90
2220;DHT22;1116;51.502;7.414;2023-08-06T15:22:45;16.60;99.90
2220;DHT22;1116;51.502;7.414;2023-08-06T15:25:19;16.80;99.90
2220;DHT22;1116;51.502;7.414;2023-08-06T15:27:50;16.70;99.90
2220;DHT22;1116;51.502;7.414;2023-08-06T15:30:21;16.80;99.90
2220;DHT22;1116;51.502;7.414;2023-08-06T15:32:52;16.70;99.90
2220;DHT22;1116;51.502;7.414;2023-08-06T15:35:24;16.70;99.90
2220;DHT22;1116;51.502;7.414;2023-08-06T15:37:55;16.60;99.90
2220;DHT22;1116;51.502;7.414;2023-08-06T15:40:29;16.60;99.10
2220;DHT22;1116;51.502;7.414;2023-08-06T15:43:00;16.60;99.20
2220;DHT22;1116;51.502;7.414;2023-08-06T15:45:31;16.50;99.50
2220;DHT22;1116;51.502;7.414;2023-08-06T15:48:03;16.60;99.90
2220;DHT22;1116;51.502;7.414;2023-08-06T15:50:37;16.70;99.90
2220;DHT22;1116;51.502;7.414;2023-08-06T15:53:11;16.70;99.90
2220;DHT22;1116;51.502;7.414;2023-08-06T15:55:46;16.70;99.90
2220;DHT22;1116;51.502;7.414;2023-08-06T15:58:16;16.70;98.40
2220;DHT22;1116;51.502;7.414;2023-08-06T16:00:46;16.70;99.90
2220;DHT22;1116;51.502;7.414;2023-08-06T16:03:16;16.80;99.00
2220;DHT22;1116;51.502;7.414;2023-08-06T16:05:48;16.80;99.90
2220;DHT22;1116;51.502;7.414;2023-08-06T16:08:19;16.90;99.50
2220;DHT22;1116;51.502;7.414;2023-08-06T16:10:53;16.80;99.10
2220;DHT22;1116;51.502;7.414;2023-08-06T16:13:23;16.80;99.70
2220;DHT22;1116;51.502;7.414;2023-08-06T16:15:54;16.80;98.70
2220;DHT22;1116;51.502;7.414;2023-08-06T16:18:26;16.80;99.90
2220;DHT22;1116;51.502;7.414;2023-08-06T16:20:57;16.90;99.90
2220;DHT22;1116;51.502;7.414;2023-08-06T16:23:28;17.00;99.90
2220;DHT22;1116;51.502;7.414;2023-08-06T16:26:02;16.90;99.60
2220;DHT22;1116;51.502;7.414;2023-08-06T16:28:32;16.90;98.90
2220;DHT22;1116;51.502;7.414;2023-08-06T16:31:02;16.90;99.00
2220;DHT22;1116;51.502;7.414;2023-08-06T16:33:34;16.90;99.60
2220;DHT22;1116;51.502;7.414;2023-08-06T16:36:05;16.90;99.90
2220;DHT22;1116;51.502;7.414;2023-08-06T16:38:36;16.80;99.80
2220;DHT22;1116;51.502;7.414;2023-08-06T16:41:10;16.90;99.90
2220;DHT22;1116;51.502;7.414;2023-08-06T16:43:40;17.00;99.90
2220;DHT22;1116;51.502;7.414;2023-08-06T16:46:10;16.90;99.10
2220;DHT22;1116;51.502;7.414;2023-08-06T16:48:42;16.80;97.20
2220;DHT22;1116;51.502;7.414;2023-08-06T16:51:13;16.80;99.60
2220;DHT22;1116;51.502;7.414;2023-08-06T16:53:44;16.90;99.80
2220;DHT22;1116;51.502;7.414;2023-08-06T16:56:18;16.80;98.10
2220;DHT22;1116;51.502;7.414;2023-08-06T16:58:48;16.80;97.70
2220;DHT22;1116;51.502;7.414;2023-08-06T17:01:18;16.70;98.70
2220;DHT22;1116;51.502;7.414;2023-08-06T17:03:50;16.60;97.50
2220;DHT22;1116;51.502;7.414;2023-08-06T17:06:23;16.70;99.90
2220;DHT22;1116;51.502;7.414;2023-08-06T17:08:54;16.70;99.30
2220;DHT22;1116;51.502;7.414;2023-08-06T17:11:30;16.70;99.40
2220;DHT22;1116;51.502;7.414;2023-08-06T17:14:01;16.70;99.90
2220;DHT22;1116;51.502;7.414;2023-08-06T17:16:31;16.60;97.80
2220;DHT22;1116;51.502;7.414;2023-08-06T17:19:02;16.50;98.60
2220;DHT22;1116;51.502;7.414;2023-08-06T17:21:33;16.50;99.90
2220;DHT22;1116;51.502;7.414;2023-08-06T17:24:05;16.60;99.60
2220;DHT22;1116;51.502;7.414;2023-08-06T17:26:38;16.50;98.50
2220;DHT22;1116;51.502;7.414;2023-08-06T17:29:08;16.50;99.90
2220;DHT22;1116;51.502;7.414;2023-08-06T17:31:38;16.50;99.10
2220;DHT22;1116;51.502;7.414;2023-08-06T17:34:08;16.50;99.90
2220;DHT22;1116;51.502;7.414;2023-08-06T17:36:39;16.40;99.90
2220;DHT22;1116;51.502;7.414;2023-08-06T17:39:10;16.30;99.90
2220;DHT22;1116;51.502;7.414;2023-08-06T17:41:44;16.40;99.90
2220;DHT22;1116;51.502;7.414;2023-08-06T17:44:15;16.30;99.90
2220;DHT22;1116;51.502;7.414;2023-08-06T17:46:46;16.40;99.90
2220;DHT22;1116;51.502;7.414;2023-08-06T17:49:18;16.40;99.90
2220;DHT22;1116;51.502;7.414;2023-08-06T17:51:49;16.40;99.90
2220;DHT22;1116;51.502;7.414;2023-08-06T17:54:20;16.40;99.90
2220;DHT22;1116;51.502;7.414;2023-08-06T17:56:55;16.30;99.90
2220;DHT22;1116;51.502;7.414;2023-08-06T17:59:27;16.30;99.90
2220;DHT22;1116;51.502;7.414;2023-08-06T18:01:58;16.20;99.90
2220;DHT22;1116;51.502;7.414;2023-08-06T18:04:29;16.40;99.90
2220;DHT22;1116;51.502;7.414;2023-08-06T18:07:01;16.30;99.90
2220;DHT22;1116;51.502;7.414;2023-08-06T18:09:33;16.30;99.90
2220;DHT22;1116;51.502;7.414;2023-08-06T18:12:09;16.30;99.90
2220;DHT22;1116;51.502;7.414;2023-08-06T18:14:40;16.30;99.90
2220;DHT22;1116;51.502;7.414;2023-08-06T18:17:12;16.40;99.90
2220;DHT22;1116;51.502;7.414;2023-08-06T18:19:43;16.40;99.90
2220;DHT22;1116;51.502;7.414;2023-08-06T18:22:14;16.20;99.90
2220;DHT22;1116;51.502;7.414;2023-08-06T18:24:45;16.10;99.90
2220;DHT22;1116;51.502;7.414;2023-08-06T18:27:19;16.10;99.90
2220;DHT22;1116;51.502;7.414;2023-08-06T18:29:50;16.00;99.90
2220;DHT22;1116;51.502;7.414;2023-08-06T18:32:21;16.10;99.90
2220;DHT22;1116;51.502;7.414;2023-08-06T18:34:52;16.10;99.90
2220;DHT22;1116;51.502;7.414;2023-08-06T18:37:24;16.00;99.90
2220;DHT22;1116;51.502;7.414;2023-08-06T18:39:55;16.00;99.90
2220;DHT22;1116;51.502;7.414;2023-08-06T18:42:32;15.80;99.90
2220;DHT22;1116;51.502;7.414;2023-08-06T18:45:03;15.70;99.90
2220;DHT22;1116;51.502;7.414;2023-08-06T18:47:33;15.70;99.90
2220;DHT22;1116;51.502;7.414;2023-08-06T18:50:04;15.70;99.90
2220;DHT22;1116;51.502;7.414;2023-08-06T18:52:37;15.60;99.90
2220;DHT22;1116;51.502;7.414;2023-08-06T18:55:09;15.50;99.90
2220;DHT22;1116;51.502;7.414;2023-08-06T18:57:42;15.30;99.90
2220;DHT22;1116;51.502;7.414;2023-08-06T19:00:13;15.20;99.90
2220;DHT22;1116;51.502;7.414;2023-08-06T19:02:44;15.10;99.90
2220;DHT22;1116;51.502;7.414;2023-08-06T19:05:15;15.00;99.90
2220;DHT22;1116;51.502;7.414;2023-08-06T19:07:46;14.90;99.90
2220;DHT22;1116;51.502;7.414;2023-08-06T19:10:19;14.90;99.90
2220;DHT22;1116;51.502;7.414;2023-08-06T19:12:54;14.90;99.90
2220;DHT22;1116;51.502;7.414;2023-08-06T19:15:27;15.00;99.90
2220;DHT22;1116;51.502;7.414;2023-08-06T19:17:57;14.90;99.90
2220;DHT22;1116;51.502;7.414;2023-08-06T19:20:28;14.80;99.90
2220;DHT22;1116;51.502;7.414;2023-08-06T19:22:59;14.90;99.90
2220;DHT22;1116;51.502;7.414;2023-08-06T19:25:31;14.90;99.90
2220;DHT22;1116;51.502;7.414;2023-08-06T19:28:05;15.00;99.90
2220;DHT22;1116;51.502;7.414;2023-08-06T19:30:39;15.00;99.90
2220;DHT22;1116;51.502;7.414;2023-08-06T19:33:11;15.00;99.90
2220;DHT22;1116;51.502;7.414;2023-08-06T19:35:49;15.00;99.90
2220;DHT22;1116;51.502;7.414;2023-08-06T19:38:22;15.10;99.90
2220;DHT22;1116;51.502;7.414;2023-08-06T19:41:03;15.00;99.90
2220;DHT22;1116;51.502;7.414;2023-08-06T19:43:37;14.80;99.90
2220;DHT22;1116;51.502;7.414;2023-08-06T19:46:08;15.00;99.90
2220;DHT22;1116;51.502;7.414;2023-08-06T19:48:38;14.90;99.90
2220;DHT22;1116;51.502;7.414;2023-08-06T19:51:08;15.00;99.90
2220;DHT22;1116;51.502;7.414;2023-08-06T19:53:40;15.00;99.90
2220;DHT22;1116;51.502;7.414;2023-08-06T19:56:11;15.00;99.90
2220;DHT22;1116;51.502;7.414;2023-08-06T19:58:45;15.00;99.90
2220;DHT22;1116;51.502;7.414;2023-08-06T20:01:16;15.00;99.90
2220;DHT22;1116;51.502;7.414;2023-08-06T20:03:46;15.00;99.90
2220;DHT22;1116;51.502;7.414;2023-08-06T20:06:16;14.90;99.90
2220;DHT22;1116;51.502;7.414;2023-08-06T20:08:50;15.00;99.90
2220;DHT22;1116;51.502;7.414;2023-08-06T20:11:21;15.00;99.90
2220;DHT22;1116;51.502;7.414;2023-08-06T20:13:55;14.90;99.90
2220;DHT22;1116;51.502;7.414;2023-08-06T20:16:25;14.90;99.90
2220;DHT22;1116;51.502;7.414;2023-08-06T20:18:55;15.00;99.90
2220;DHT22;1116;51.502;7.414;2023-08-06T20:21:27;15.00;99.90
2220;DHT22;1116;51.502;7.414;2023-08-06T20:23:58;14.90;99.90
2220;DHT22;1116;51.502;7.414;2023-08-06T20:26:30;14.90;99.90
2220;DHT22;1116;51.502;7.414;2023-08-06T20:29:04;14.90;99.90
2220;DHT22;1116;51.502;7.414;2023-08-06T20:31:35;14.90;99.90
2220;DHT22;1116;51.502;7.414;2023-08-06T20:34:05;14.80;99.90
2220;DHT22;1116;51.502;7.414;2023-08-06T20:36:36;14.90;99.90
2220;DHT22;1116;51.502;7.414;2023-08-06T20:39:07;14.80;99.90
2220;DHT22;1116;51.502;7.414;2023-08-06T20:41:38;14.80;99.90
2220;DHT22;1116;51.502;7.414;2023-08-06T20:44:12;14.80;99.90
2220;DHT22;1116;51.502;7.414;2023-08-06T20:46:42;14.70;99.90
2220;DHT22;1116;51.502;7.414;2023-08-06T20:49:12;14.60;99.90
2220;DHT22;1116;51.502;7.414;2023-08-06T20:51:43;14.70;99.90
2220;DHT22;1116;51.502;7.414;2023-08-06T20:54:15;14.70;99.90
2220;DHT22;1116;51.502;7.414;2023-08-06T20:56:46;14.70;99.90
2220;DHT22;1116;51.502;7.414;2023-08-06T20:59:19;14.80;99.90
2220;DHT22;1116;51.502;7.414;2023-08-06T21:01:50;14.60;99.90
2220;DHT22;1116;51.502;7.414;2023-08-06T21:04:23;14.60;99.90
2220;DHT22;1116;51.502;7.414;2023-08-06T21:06:53;14.50;99.90
2220;DHT22;1116;51.502;7.414;2023-08-06T21:09:24;14.40;99.90
2220;DHT22;1116;51.502;7.414;2023-08-06T21:11:55;14.50;99.90
2220;DHT22;1116;51.502;7.414;2023-08-06T21:14:29;14.50;99.90
2220;DHT22;1116;51.502;7.414;2023-08-06T21:17:00;14.40;99.90
2220;DHT22;1116;51.502;7.414;2023-08-06T21:19:31;14.50;99.90
2220;DHT22;1116;51.502;7.414;2023-08-06T21:22:03;14.40;99.90
2220;DHT22;1116;51.502;7.414;2023-08-06T21:24:36;14.40;99.90
2220;DHT22;1116;51.502;7.414;2023-08-06T21:27:08;14.60;99.90
2220;DHT22;1116;51.502;7.414;2023-08-06T21:29:42;14.50;99.90
2220;DHT22;1116;51.502;7.414;2023-08-06T21:32:13;14.60;99.90
2220;DHT22;1116;51.502;7.414;2023-08-06T21:34:44;14.60;99.90
2220;DHT22;1116;51.502;7.414;2023-08-06T21:37:16;14.50;99.90
2220;DHT22;1116;51.502;7.414;2023-08-06T21:39:47;14.50;99.90
2220;DHT22;1116;51.502;7.414;2023-08-06T21:42:18;14.60;99.90
2220;DHT22;1116;51.502;7.414;2023-08-06T21:44:51;14.50;99.90
2220;DHT22;1116;51.502;7.414;2023-08-06T21:47:23;14.60;99.90
2220;DHT22;1116;51.502;7.414;2023-08-06T21:49:54;14.60;99.90
2220;DHT22;1116;51.502;7.414;2023-08-06T21:52:25;14.60;99.90
2220;DHT22;1116;51.502;7.414;2023-08-06T21:54:56;14.50;99.90
2220;DHT22;1116;51.502;7.414;2023-08-06T21:57:27;14.50;99.90
2220;DHT22;1116;51.502;7.414;2023-08-06T22:00:01;14.40;99.90
2220;DHT22;1116;51.502;7.414;2023-08-06T22:02:33;14.40;99.90
2220;DHT22;1116;51.502;7.414;2023-08-06T22:05:05;14.50;99.90
2220;DHT22;1116;51.502;7.414;2023-08-06T22:07:36;14.50;99.90
2220;DHT22;1116;51.502;7.414;2023-08-06T22:10:08;14.50;99.90
2220;DHT22;1116;51.502;7.414;2023-08-06T22:12:39;14.50;99.90
2220;DHT22;1116;51.502;7.414;2023-08-06T22:15:13;14.50;99.90
2220;DHT22;1116;51.502;7.414;2023-08-06T22:17:43;14.60;99.90
2220;DHT22;1116;51.502;7.414;2023-08-06T22:20:14;14.50;99.90
2220;DHT22;1116;51.502;7.414;2023-08-06T22:22:44;14.50;99.90
2220;DHT22;1116;51.502;7.414;2023-08-06T22:25:16;14.50;99.90
2220;DHT22;1116;51.502;7.414;2023-08-06T22:27:47;14.40;99.90
2220;DHT22;1116;51.502;7.414;2023-08-06T22:30:21;14.60;99.90
2220;DHT22;1116;51.502;7.414;2023-08-06T22:32:51;14.50;99.90
2220;DHT22;1116;51.502;7.414;2023-08-06T22:35:21;14.60;99.90
2220;DHT22;1116;51.502;7.414;2023-08-06T22:37:52;14.40;99.90
2220;DHT22;1116;51.502;7.414;2023-08-06T22:40:23;14.40;99.90
2220;DHT22;1116;51.502;7.414;2023-08-06T22:42:54;14.50;99.90
2220;DHT22;1116;51.502;7.414;2023-08-06T22:45:28;14.40;99.90
2220;DHT22;1116;51.502;7.414;2023-08-06T22:47:58;14.30;99.90
2220;DHT22;1116;51.502;7.414;2023-08-06T22:50:28;14.40;99.90
2220;DHT22;1116;51.502;7.414;2023-08-06T22:52:59;14.40;99.90
2220;DHT22;1116;51.502;7.414;2023-08-06T22:55:30;14.40;99.90
2220;DHT22;1116;51.502;7.414;2023-08-06T22:58:04;14.40;99.90
2220;DHT22;1116;51.502;7.414;2023-08-06T23:00:38;14.40;99.90
2220;DHT22;1116;51.502;7.414;2023-08-06T23:03:08;14.40;99.90
2220;DHT22;1116;51.502;7.414;2023-08-06T23:05:40;14.50;99.90
2220;DHT22;1116;51.502;7.414;2023-08-06T23:08:11;14.30;99.90
2220;DHT22;1116;51.502;7.414;2023-08-06T23:10:42;14.30;99.90
2220;DHT22;1116;51.502;7.414;2023-08-06T23:13:13;14.30;99.90
2220;DHT22;1116;51.502;7.414;2023-08-06T23:15:47;14.50;99.90
2220;DHT22;1116;51.502;7.414;2023-08-06T23:18:17;14.40;99.90
2220;DHT22;1116;51.502;7.414;2023-08-06T23:20:47;14.30;99.90
2220;DHT22;1116;51.502;7.414;2023-08-06T23:23:18;14.40;99.90
2220;DHT22;1116;51.502;7.414;2023-08-06T23:25:50;14.40;99.90
2220;DHT22;1116;51.502;7.414;2023-08-06T23:28:21;14.40;99.90
2220;DHT22;1116;51.502;7.414;2023-08-06T23:30:55;14.60;99.90
2220;DHT22;1116;51.502;7.414;2023-08-06T23:33:25;14.50;99.90
2220;DHT22;1116;51.502;7.414;2023-08-06T23:35:55;14.40;99.90
2220;DHT22;1116;51.502;7.414;2023-08-06T23:38:26;14.40;99.90
2220;DHT22;1116;51.502;7.414;2023-08-06T23:40:57;14.50;99.90
2220;DHT22;1116;51.502;7.414;2023-08-06T23:43:28;14.50;99.90
2220;DHT22;1116;51.502;7.414;2023-08-06T23:46:02;14.50;99.90
2220;DHT22;1116;51.502;7.414;2023-08-06T23:48:32;14.50;99.90
2220;DHT22;1116;51.502;7.414;2023-08-06T23:51:03;14.40;99.90
2220;DHT22;1116;51.502;7.414;2023-08-06T23:53:34;14.50;99.90
2220;DHT22;1116;51.502;7.414;2023-08-06T23:56:05;14.40;99.90
2220;DHT22;1116;51.502;7.414;2023-08-06T23:58:36;14.50;99.90
